Time;durP1;ratioP1;P1;durP2;ratioP2;P2;SDS_P1;SDS_P2;PMS_P1;PMS_P2;Temp;Humidity;BMP_temperature;BMP_pressure;BME280_temperature;BME280_humidity;BME280_pressure;Samples;Min_cycle;Max_cycle;Signal;HPM_P1;HPM_P2
2023/12/09 00:00:12;;;;;;;139.45;40.17;;;3.80;99.90;;;;;;5029156;28;20091;-83
2023/12/09 00:02:39;;;;;;;312.45;92.25;;;3.80;99.90;;;;;;5049480;28;20718;-83
2023/12/09 00:05:06;;;;;;;170.88;52.08;;;3.80;99.90;;;;;;5034086;28;20091;-83
2023/12/09 00:07:31;;;;;;;66.75;21.08;;;3.80;99.90;;;;;;5033690;28;20873;-83
2023/12/09 00:10:03;;;;;;;86.35;21.55;;;3.70;99.90;;;;;;5034201;28;20033;-83
2023/12/09 00:12:29;;;;;;;57.53;19.50;;;3.70;99.90;;;;;;5041424;28;20083;-83
2023/12/09 00:14:55;;;;;;;87.95;22.67;;;3.70;99.90;;;;;;5045726;28;20440;-83
2023/12/09 00:17:21;;;;;;;68.25;17.73;;;3.70;99.90;;;;;;5035776;28;20175;-83
2023/12/09 00:19:46;;;;;;;53.53;15.02;;;3.80;99.90;;;;;;5015761;28;20398;-83
2023/12/09 00:22:12;;;;;;;69.05;18.42;;;3.80;99.90;;;;;;5025711;28;20033;-83
2023/12/09 00:24:37;;;;;;;63.10;16.75;;;3.80;99.90;;;;;;5034292;28;20045;-83
2023/12/09 00:27:03;;;;;;;55.90;13.75;;;3.80;99.90;;;;;;5024770;28;20033;-83
2023/12/09 00:29:29;;;;;;;45.42;13.68;;;3.80;99.90;;;;;;5030052;28;20117;-83
2023/12/09 00:31:55;;;;;;;45.58;15.35;;;3.80;99.90;;;;;;5037887;28;20136;-83
2023/12/09 00:34:20;;;;;;;55.50;14.05;;;3.90;99.90;;;;;;5035263;28;20033;-83
2023/12/09 00:36:46;;;;;;;35.25;12.57;;;3.80;99.90;;;;;;5045284;28;20021;-82
2023/12/09 00:39:11;;;;;;;63.30;15.45;;;3.90;99.90;;;;;;5039379;28;20087;-82
2023/12/09 00:41:37;;;;;;;39.88;13.68;;;3.90;99.90;;;;;;5025265;28;20083;-83
2023/12/09 00:44:03;;;;;;;46.53;12.27;;;3.90;99.90;;;;;;5038514;28;20090;-82
2023/12/09 00:46:28;;;;;;;47.78;14.63;;;3.90;99.90;;;;;;5029073;28;20033;-82
2023/12/09 00:48:54;;;;;;;58.47;15.82;;;4.00;99.90;;;;;;5038649;28;20645;-83
2023/12/09 00:51:20;;;;;;;57.67;18.52;;;3.90;99.90;;;;;;5033896;28;20033;-83
2023/12/09 00:53:45;;;;;;;72.35;17.95;;;3.90;99.90;;;;;;5040739;28;20079;-83
2023/12/09 00:56:11;;;;;;;70.63;18.70;;;4.00;99.90;;;;;;5037168;28;20116;-83
2023/12/09 00:58:36;;;;;;;68.03;19.27;;;3.90;99.90;;;;;;5034796;28;20045;-83
2023/12/09 01:01:02;;;;;;;73.13;19.40;;;3.90;99.90;;;;;;5032560;28;20044;-83
2023/12/09 01:03:28;;;;;;;77.95;23.40;;;4.00;99.90;;;;;;5039855;28;20025;-83
2023/12/09 01:05:54;;;;;;;77.75;24.20;;;4.00;99.90;;;;;;5036557;28;20029;-83
2023/12/09 01:08:19;;;;;;;93.53;23.65;;;4.00;99.90;;;;;;5033507;28;20813;-83
2023/12/09 01:10:45;;;;;;;55.67;17.00;;;4.00;99.90;;;;;;5037079;28;20037;-83
2023/12/09 01:13:11;;;;;;;65.00;21.63;;;4.00;99.90;;;;;;5038315;28;20468;-83
2023/12/09 01:15:36;;;;;;;81.63;22.45;;;4.00;99.90;;;;;;5059369;28;20496;-83
2023/12/09 01:18:02;;;;;;;52.80;17.10;;;4.00;99.90;;;;;;5042367;28;20502;-83
2023/12/09 01:20:28;;;;;;;74.28;18.73;;;4.10;99.90;;;;;;5028312;28;20613;-83
2023/12/09 01:22:54;;;;;;;73.15;20.27;;;4.10;99.90;;;;;;5036793;28;20052;-83
2023/12/09 01:25:20;;;;;;;52.90;19.00;;;4.10;99.90;;;;;;5034317;28;20029;-83
2023/12/09 01:27:45;;;;;;;50.33;17.23;;;4.10;99.90;;;;;;5039476;28;20052;-83
2023/12/09 01:30:11;;;;;;;58.42;16.08;;;4.10;99.90;;;;;;5035950;28;20740;-83
2023/12/09 01:32:37;;;;;;;67.10;18.25;;;4.20;99.90;;;;;;5041384;28;20150;-83
2023/12/09 01:35:03;;;;;;;53.55;17.00;;;4.10;99.90;;;;;;5038954;28;20465;-83
2023/12/09 01:37:29;;;;;;;60.38;19.20;;;4.10;99.90;;;;;;5019488;28;20044;-83
2023/12/09 01:39:55;;;;;;;59.47;17.27;;;4.10;99.90;;;;;;5029620;28;20782;-83
2023/12/09 01:42:20;;;;;;;63.25;20.73;;;4.20;99.90;;;;;;5039927;28;20441;-83
2023/12/09 01:44:46;;;;;;;64.47;21.00;;;4.20;99.90;;;;;;5026922;28;20124;-83
2023/12/09 01:47:12;;;;;;;73.32;22.55;;;4.10;99.90;;;;;;5030959;28;20209;-83
2023/12/09 01:49:38;;;;;;;86.03;23.98;;;4.20;99.90;;;;;;5034137;28;20029;-83
2023/12/09 01:52:05;;;;;;;88.50;22.80;;;4.20;99.90;;;;;;5032383;28;20116;-83
2023/12/09 01:54:31;;;;;;;95.47;24.67;;;4.10;99.90;;;;;;5040153;28;20064;-83
2023/12/09 01:56:57;;;;;;;118.95;26.58;;;4.10;99.90;;;;;;5034694;28;20053;-84
2023/12/09 01:59:23;;;;;;;72.95;23.10;;;4.10;99.90;;;;;;5018342;28;20116;-84
2023/12/09 02:01:51;;;;;;;86.32;24.48;;;4.10;99.90;;;;;;5035891;28;20117;-83
2023/12/09 02:04:31;;;;;;;122.30;27.10;;;4.20;99.90;;;;;;5020323;28;20376;-83
2023/12/09 02:06:57;;;;;;;204.85;30.75;;;4.10;99.90;;;;;;5044587;28;20036;-83
2023/12/09 02:09:22;;;;;;;364.05;40.90;;;4.10;99.90;;;;;;5062818;28;20025;-83
2023/12/09 02:12:04;;;;;;;84.70;24.10;;;4.10;99.90;;;;;;5032014;28;20036;-83
2023/12/09 02:14:36;;;;;;;884.28;78.70;;;4.10;99.90;;;;;;5010898;28;20044;-83
2023/12/09 02:17:14;;;;;;;358.38;34.55;;;4.10;99.90;;;;;;5036146;28;20039;-83
2023/12/09 02:19:40;;;;;;;454.80;40.05;;;4.10;99.90;;;;;;5032625;28;20065;-83
2023/12/09 02:22:08;;;;;;;618.50;95.72;;;4.10;99.90;;;;;;5043945;28;20032;-84
2023/12/09 02:24:34;;;;;;;128.23;45.55;;;4.10;99.90;;;;;;5021753;28;20025;-83
2023/12/09 02:27:12;;;;;;;387.08;48.65;;;4.10;99.90;;;;;;5040027;28;20060;-83
2023/12/09 02:30:05;;;;;;;220.85;30.42;;;4.10;99.90;;;;;;5037574;28;20037;-83
2023/12/09 02:32:34;;;;;;;136.30;23.75;;;4.00;99.90;;;;;;5026611;28;20124;-83
2023/12/09 02:35:02;;;;;;;79.55;18.63;;;4.00;99.90;;;;;;5042768;28;20036;-83
2023/12/09 02:37:30;;;;;;;72.60;19.38;;;3.90;99.90;;;;;;5040500;28;20076;-83
2023/12/09 02:39:58;;;;;;;124.70;21.35;;;4.00;99.90;;;;;;5039211;28;20384;-84
2023/12/09 02:42:25;;;;;;;234.52;26.85;;;4.00;99.90;;;;;;5038043;28;20503;-83
2023/12/09 02:44:51;;;;;;;116.78;25.58;;;3.90;99.90;;;;;;5043014;28;20045;-83
2023/12/09 02:47:16;;;;;;;319.42;35.85;;;3.90;99.90;;;;;;5039084;28;20033;-83
2023/12/09 02:49:42;;;;;;;267.10;34.75;;;3.90;99.90;;;;;;5037067;28;20495;-84
2023/12/09 02:52:09;;;;;;;101.50;22.42;;;3.90;99.90;;;;;;5038775;28;20120;-83
2023/12/09 02:54:35;;;;;;;273.38;36.92;;;3.90;99.90;;;;;;5040057;28;20025;-83
2023/12/09 02:57:00;;;;;;;84.45;23.83;;;3.90;99.90;;;;;;5041595;28;20607;-83
2023/12/09 02:59:28;;;;;;;111.00;26.40;;;4.00;99.90;;;;;;5041326;28;20017;-83
2023/12/09 03:01:54;;;;;;;76.55;22.23;;;4.00;99.90;;;;;;5018417;28;20527;-84
2023/12/09 03:04:20;;;;;;;88.15;23.13;;;4.00;99.90;;;;;;5042112;28;20033;-83
2023/12/09 03:06:46;;;;;;;128.27;29.30;;;4.00;99.90;;;;;;5038216;28;20041;-83
2023/12/09 03:09:12;;;;;;;214.95;42.17;;;4.00;99.90;;;;;;5042813;28;20029;-84
2023/12/09 03:11:37;;;;;;;143.50;37.10;;;4.00;99.90;;;;;;5030805;28;20053;-84
2023/12/09 03:14:03;;;;;;;168.45;32.40;;;4.00;99.90;;;;;;5040065;28;20820;-84
2023/12/09 03:16:28;;;;;;;198.85;33.70;;;4.00;99.90;;;;;;5037460;28;20454;-84
2023/12/09 03:18:54;;;;;;;138.57;28.75;;;4.00;99.90;;;;;;5043047;28;20029;-83
2023/12/09 03:21:20;;;;;;;153.07;32.25;;;4.00;99.90;;;;;;5039109;28;20036;-83
2023/12/09 03:23:45;;;;;;;92.53;26.75;;;4.00;99.90;;;;;;5037247;28;20037;-84
2023/12/09 03:26:19;;;;;;;115.50;30.83;;;4.10;99.90;;;;;;5039752;28;20037;-83
2023/12/09 03:28:45;;;;;;;188.25;34.50;;;4.10;99.90;;;;;;5038130;28;20037;-84
2023/12/09 03:31:15;;;;;;;264.85;36.50;;;4.20;99.90;;;;;;5040626;28;20041;-83
2023/12/09 03:33:42;;;;;;;311.47;41.10;;;4.20;99.90;;;;;;5024779;28;20812;-83
2023/12/09 03:36:08;;;;;;;575.17;75.43;;;4.20;99.90;;;;;;5033730;28;20033;-84
2023/12/09 03:38:34;;;;;;;515.45;50.15;;;4.20;99.90;;;;;;5036158;28;20040;-84
2023/12/09 03:41:04;;;;;;;510.45;48.10;;;4.20;99.90;;;;;;5011202;28;20389;-84
2023/12/09 03:43:30;;;;;;;159.32;28.83;;;4.20;99.90;;;;;;5037568;28;20082;-83
2023/12/09 03:45:56;;;;;;;340.45;37.22;;;4.20;99.90;;;;;;5037292;28;20154;-84
2023/12/09 03:48:21;;;;;;;563.47;50.58;;;4.10;99.90;;;;;;5029467;28;20034;-84
2023/12/09 03:50:47;;;;;;;358.08;35.40;;;4.20;99.90;;;;;;5053269;28;20033;-84
2023/12/09 03:53:14;;;;;;;597.58;53.47;;;4.10;99.90;;;;;;5025531;28;20037;-84
2023/12/09 03:55:40;;;;;;;327.83;36.42;;;4.20;99.90;;;;;;5035227;28;20030;-83
2023/12/09 03:58:06;;;;;;;396.95;43.95;;;4.20;99.90;;;;;;5036301;28;20595;-84
2023/12/09 04:00:32;;;;;;;167.10;30.23;;;4.20;99.90;;;;;;5035256;28;20117;-83
2023/12/09 04:02:58;;;;;;;621.40;54.67;;;4.20;99.90;;;;;;5048967;28;20045;-84
2023/12/09 04:05:23;;;;;;;395.98;42.35;;;4.20;99.90;;;;;;5039939;28;20082;-84
2023/12/09 04:07:49;;;;;;;129.27;29.02;;;4.20;99.90;;;;;;5023934;28;20083;-83
2023/12/09 04:10:14;;;;;;;183.48;28.90;;;4.20;99.90;;;;;;5023964;28;20030;-84
2023/12/09 04:12:40;;;;;;;194.50;29.23;;;4.20;99.90;;;;;;5038810;28;20436;-83
2023/12/09 04:15:08;;;;;;;339.88;35.60;;;4.10;99.90;;;;;;5032594;28;20064;-84
2023/12/09 04:17:33;;;;;;;97.28;25.50;;;4.10;99.90;;;;;;5042992;28;20025;-84
2023/12/09 04:20:00;;;;;;;416.45;42.90;;;4.10;99.90;;;;;;5031394;28;20072;-83
2023/12/09 04:22:25;;;;;;;257.77;37.13;;;4.10;99.90;;;;;;5020529;28;20029;-84
2023/12/09 04:24:51;;;;;;;432.45;46.65;;;4.10;99.90;;;;;;5034516;28;20029;-83
2023/12/09 04:27:17;;;;;;;495.25;50.30;;;4.10;99.90;;;;;;5039449;28;20056;-84
2023/12/09 04:29:42;;;;;;;261.98;38.95;;;4.10;99.90;;;;;;5037797;28;20464;-83
2023/12/09 04:32:08;;;;;;;254.88;36.83;;;4.20;99.90;;;;;;5026454;28;20021;-83
2023/12/09 04:34:35;;;;;;;263.90;34.03;;;4.20;99.90;;;;;;5037631;28;20026;-84
2023/12/09 04:37:01;;;;;;;465.95;50.92;;;4.10;99.90;;;;;;5035571;28;20029;-83
2023/12/09 04:39:27;;;;;;;194.55;38.40;;;4.20;99.90;;;;;;5038944;28;20369;-84
2023/12/09 04:41:53;;;;;;;161.30;31.92;;;4.20;99.90;;;;;;5034734;28;20092;-84
2023/12/09 04:44:19;;;;;;;382.50;45.58;;;4.20;99.90;;;;;;5040307;28;20163;-84
2023/12/09 04:46:45;;;;;;;554.15;55.05;;;4.20;99.90;;;;;;5012169;28;20550;-84
2023/12/09 04:49:10;;;;;;;146.38;29.08;;;4.20;99.90;;;;;;5040453;28;20033;-83
2023/12/09 04:51:36;;;;;;;223.63;38.72;;;4.10;99.90;;;;;;5038789;28;20494;-84
2023/12/09 04:54:02;;;;;;;147.05;33.65;;;4.10;99.90;;;;;;5032980;28;20052;-84
2023/12/09 04:56:29;;;;;;;141.27;38.08;;;4.10;99.90;;;;;;5039473;28;20484;-84
2023/12/09 04:58:55;;;;;;;148.50;35.80;;;4.20;99.90;;;;;;5032229;28;20484;-84
2023/12/09 05:01:21;;;;;;;188.05;36.38;;;4.20;99.90;;;;;;5036904;28;20116;-84
2023/12/09 05:03:47;;;;;;;123.10;30.77;;;4.20;99.90;;;;;;5034746;28;20503;-84
2023/12/09 05:06:12;;;;;;;191.30;36.65;;;4.10;99.90;;;;;;5039144;28;20029;-84
2023/12/09 05:08:41;;;;;;;503.23;53.08;;;4.20;99.90;;;;;;5037265;28;20042;-83
2023/12/09 05:11:08;;;;;;;376.35;37.38;;;4.20;99.90;;;;;;5030815;28;20029;-84
2023/12/09 05:13:34;;;;;;;248.73;32.95;;;4.20;99.90;;;;;;5035874;28;20037;-84
2023/12/09 05:16:00;;;;;;;181.10;30.40;;;4.10;99.90;;;;;;5020370;28;20082;-84
2023/12/09 05:18:25;;;;;;;415.65;40.92;;;4.20;99.90;;;;;;5031548;28;20026;-84
2023/12/09 05:20:51;;;;;;;274.77;37.10;;;4.10;99.90;;;;;;5033782;28;20461;-84
2023/12/09 05:23:17;;;;;;;393.13;38.67;;;4.10;99.90;;;;;;5033073;28;20119;-84
2023/12/09 05:25:46;;;;;;;279.40;31.33;;;4.20;99.90;;;;;;5034695;28;20078;-84
2023/12/09 05:28:11;;;;;;;451.98;41.30;;;4.10;99.90;;;;;;5017852;28;20079;-84
2023/12/09 05:30:37;;;;;;;584.53;47.72;;;4.10;99.90;;;;;;5020038;28;20026;-84
2023/12/09 05:33:03;;;;;;;529.30;42.00;;;4.10;99.90;;;;;;5037546;28;20026;-83
2023/12/09 05:35:29;;;;;;;294.05;36.90;;;4.10;99.90;;;;;;5037626;28;20484;-84
2023/12/09 05:37:55;;;;;;;252.43;33.45;;;4.10;99.90;;;;;;5035974;28;20021;-84
2023/12/09 05:40:20;;;;;;;1036.57;68.22;;;4.10;99.90;;;;;;5027611;28;20033;-84
2023/12/09 05:42:46;;;;;;;619.25;48.53;;;4.10;99.90;;;;;;5040279;28;20022;-84
2023/12/09 05:45:12;;;;;;;643.33;50.60;;;4.20;99.90;;;;;;5012725;28;20124;-84
2023/12/09 05:47:38;;;;;;;511.42;41.75;;;4.10;99.90;;;;;;5060532;28;20030;-84
2023/12/09 05:50:04;;;;;;;354.33;31.80;;;4.20;99.90;;;;;;5019703;28;20583;-84
2023/12/09 05:52:29;;;;;;;319.92;35.28;;;4.20;99.90;;;;;;5045642;28;20033;-84
2023/12/09 05:54:55;;;;;;;317.98;34.80;;;4.10;99.90;;;;;;5038551;28;20036;-84
2023/12/09 05:57:21;;;;;;;473.13;44.38;;;4.20;99.90;;;;;;5015632;28;20426;-84
2023/12/09 05:59:46;;;;;;;388.67;38.80;;;4.20;99.90;;;;;;5024153;28;20021;-84
2023/12/09 06:02:12;;;;;;;434.20;39.55;;;4.20;99.90;;;;;;5014783;28;20045;-84
2023/12/09 06:04:38;;;;;;;459.60;42.63;;;4.20;99.90;;;;;;5035743;28;20053;-84
2023/12/09 06:07:03;;;;;;;272.88;31.67;;;4.20;99.90;;;;;;5016269;28;20034;-84
2023/12/09 06:09:29;;;;;;;272.02;35.08;;;4.20;99.90;;;;;;5021310;28;20022;-84
2023/12/09 06:11:55;;;;;;;360.20;39.75;;;4.20;99.90;;;;;;5016409;28;20034;-84
2023/12/09 06:14:21;;;;;;;220.07;34.00;;;4.20;99.90;;;;;;5041157;28;20061;-84
2023/12/09 06:16:47;;;;;;;364.15;38.08;;;4.20;99.90;;;;;;5020240;28;20469;-84
2023/12/09 06:19:13;;;;;;;392.17;38.80;;;4.20;99.90;;;;;;5018225;28;20095;-84
2023/12/09 06:21:38;;;;;;;323.30;38.58;;;4.20;99.90;;;;;;5021246;28;20017;-84
2023/12/09 06:24:04;;;;;;;682.47;56.53;;;4.20;99.90;;;;;;5020343;28;20067;-84
2023/12/09 06:26:30;;;;;;;655.20;50.17;;;4.20;99.90;;;;;;5012360;28;20417;-84
2023/12/09 06:28:56;;;;;;;459.05;41.00;;;4.20;99.90;;;;;;5036638;28;20041;-84
2023/12/09 06:31:21;;;;;;;395.83;37.95;;;4.20;99.90;;;;;;5032184;28;20187;-83
2023/12/09 06:33:47;;;;;;;419.73;40.15;;;4.30;99.90;;;;;;5013355;28;20067;-84
2023/12/09 06:36:13;;;;;;;470.35;43.50;;;4.20;99.90;;;;;;5020184;28;20504;-83
2023/12/09 06:38:39;;;;;;;556.40;47.42;;;4.20;99.90;;;;;;5039590;28;20064;-83
2023/12/09 06:41:06;;;;;;;461.33;40.50;;;4.20;99.90;;;;;;5044258;28;20113;-84
2023/12/09 06:43:31;;;;;;;433.30;39.17;;;4.20;99.90;;;;;;5034178;28;20029;-84
2023/12/09 06:46:00;;;;;;;279.60;29.90;;;4.20;99.90;;;;;;5015616;28;20433;-83
2023/12/09 06:48:26;;;;;;;618.72;45.63;;;4.20;99.90;;;;;;5035837;28;20031;-84
2023/12/09 06:50:51;;;;;;;636.63;50.83;;;4.20;99.90;;;;;;5017757;28;20025;-84
2023/12/09 06:53:17;;;;;;;450.75;41.08;;;4.30;99.90;;;;;;5020379;28;20048;-84
2023/12/09 06:55:43;;;;;;;851.95;64.53;;;4.30;99.90;;;;;;5018290;28;20032;-84
2023/12/09 06:58:08;;;;;;;340.70;35.53;;;4.20;99.90;;;;;;5022619;28;20719;-84
2023/12/09 07:00:35;;;;;;;371.80;35.28;;;4.30;99.90;;;;;;5014693;28;20392;-84
2023/12/09 07:03:01;;;;;;;630.88;52.72;;;4.30;99.90;;;;;;5034207;28;20037;-84
2023/12/09 07:05:27;;;;;;;559.17;52.88;;;4.30;99.90;;;;;;5014648;28;20040;-84
2023/12/09 07:07:52;;;;;;;94.53;29.85;;;4.30;99.90;;;;;;5042286;28;20037;-84
2023/12/09 07:10:18;;;;;;;544.72;56.30;;;4.30;99.90;;;;;;5061982;28;20055;-84
2023/12/09 07:12:44;;;;;;;317.73;37.90;;;4.40;99.90;;;;;;5021875;28;20036;-84
2023/12/09 07:15:09;;;;;;;668.35;62.42;;;4.30;99.90;;;;;;5019285;28;20400;-84
2023/12/09 07:17:35;;;;;;;479.98;45.92;;;4.30;99.90;;;;;;5039728;28;20412;-84
2023/12/09 07:20:01;;;;;;;552.92;48.70;;;4.40;99.90;;;;;;5038612;28;20480;-84
2023/12/09 07:22:26;;;;;;;355.85;39.65;;;4.40;99.90;;;;;;5040796;28;20040;-85
2023/12/09 07:24:52;;;;;;;754.42;64.57;;;4.50;99.90;;;;;;5039747;28;20028;-84
2023/12/09 07:27:18;;;;;;;730.50;59.33;;;4.40;99.90;;;;;;5034054;28;20051;-84
2023/12/09 07:29:44;;;;;;;566.28;54.40;;;4.40;99.90;;;;;;5040835;28;20025;-84
2023/12/09 07:32:09;;;;;;;699.20;62.45;;;4.40;99.90;;;;;;5040805;28;20025;-84
2023/12/09 07:34:35;;;;;;;258.38;41.70;;;4.40;99.90;;;;;;5016034;28;20118;-84
2023/12/09 07:37:01;;;;;;;379.33;44.38;;;4.50;99.90;;;;;;5021542;28;20041;-84
2023/12/09 07:39:27;;;;;;;419.23;50.38;;;4.50;99.90;;;;;;5013107;28;20091;-84
2023/12/09 07:41:53;;;;;;;577.03;58.95;;;4.50;99.90;;;;;;5029492;28;20037;-84
2023/12/09 07:44:19;;;;;;;758.55;65.15;;;4.50;99.90;;;;;;5041597;28;20026;-85
2023/12/09 07:46:45;;;;;;;865.40;64.43;;;4.60;99.90;;;;;;5058653;28;20742;-84
2023/12/09 07:49:12;;;;;;;1109.95;73.50;;;4.60;99.90;;;;;;5006975;28;20041;-84
2023/12/09 07:51:38;;;;;;;829.72;60.00;;;4.60;99.90;;;;;;5030586;28;20067;-84
2023/12/09 07:54:04;;;;;;;376.85;36.53;;;4.70;99.90;;;;;;5027592;28;20024;-84
2023/12/09 07:56:30;;;;;;;538.92;46.72;;;4.60;99.90;;;;;;5015641;28;20029;-84
2023/12/09 07:58:56;;;;;;;939.75;63.92;;;4.60;99.90;;;;;;5047713;28;20038;-84
2023/12/09 08:01:22;;;;;;;693.15;54.83;;;4.50;99.90;;;;;;5060602;28;20037;-84
2023/12/09 08:03:48;;;;;;;465.73;42.28;;;4.50;99.90;;;;;;5016920;28;20068;-84
2023/12/09 08:06:14;;;;;;;601.35;49.75;;;4.50;99.90;;;;;;5048259;28;20056;-84
2023/12/09 08:08:40;;;;;;;489.58;46.03;;;4.60;99.90;;;;;;5023073;28;20083;-84
2023/12/09 08:11:06;;;;;;;667.17;51.42;;;4.50;99.90;;;;;;5030221;28;20037;-84
2023/12/09 08:13:32;;;;;;;427.52;45.28;;;4.50;99.90;;;;;;5042183;28;20432;-84
2023/12/09 08:15:58;;;;;;;498.25;53.83;;;4.50;99.90;;;;;;5043692;28;20472;-84
2023/12/09 08:18:23;;;;;;;467.88;45.70;;;4.50;99.90;;;;;;5034647;28;20048;-84
2023/12/09 08:20:49;;;;;;;472.95;41.95;;;4.50;99.90;;;;;;5014113;28;20029;-84
2023/12/09 08:23:15;;;;;;;517.55;43.88;;;4.50;99.90;;;;;;5040970;28;20033;-84
2023/12/09 08:25:43;;;;;;;249.18;36.90;;;4.50;99.90;;;;;;5030741;28;20370;-84
2023/12/09 08:28:09;;;;;;;530.95;45.42;;;4.50;99.90;;;;;;5015996;28;20037;-83
2023/12/09 08:30:35;;;;;;;243.15;38.22;;;4.50;99.90;;;;;;5032092;28;20075;-83
2023/12/09 08:33:01;;;;;;;213.88;52.03;;;4.50;99.90;;;;;;5055836;28;20076;-83
2023/12/09 08:35:27;;;;;;;559.38;140.88;;;4.60;99.90;;;;;;5029608;28;20520;-84
2023/12/09 08:37:52;;;;;;;449.77;139.60;;;4.70;99.90;;;;;;5043196;28;20604;-84
2023/12/09 08:40:18;;;;;;;211.30;58.38;;;4.70;99.90;;;;;;5028802;28;20116;-84
2023/12/09 08:42:45;;;;;;;312.13;85.47;;;4.80;99.90;;;;;;5019785;28;20029;-84
2023/12/09 08:45:13;;;;;;;124.47;44.05;;;4.70;99.90;;;;;;5031198;28;20048;-84
2023/12/09 08:47:39;;;;;;;182.35;63.15;;;4.80;99.90;;;;;;5026914;28;20071;-84
2023/12/09 08:50:06;;;;;;;154.75;53.05;;;4.80;99.90;;;;;;5014099;28;20025;-84
2023/12/09 08:52:32;;;;;;;183.25;66.43;;;4.80;99.90;;;;;;5023622;28;20500;-84
2023/12/09 08:54:59;;;;;;;202.02;58.25;;;4.70;99.90;;;;;;5056894;28;20045;-84
2023/12/09 08:57:27;;;;;;;159.38;64.28;;;4.70;99.90;;;;;;5040268;28;20029;-83
2023/12/09 08:59:53;;;;;;;202.45;83.38;;;4.70;99.90;;;;;;5029647;28;20021;-83
2023/12/09 09:02:21;;;;;;;131.43;47.33;;;4.60;99.90;;;;;;5026448;28;20033;-84
2023/12/09 09:04:47;;;;;;;246.60;92.25;;;4.70;99.90;;;;;;5006346;28;20033;-84
2023/12/09 09:07:13;;;;;;;139.18;48.25;;;4.70;99.90;;;;;;5041894;28;20056;-83
2023/12/09 09:09:39;;;;;;;183.43;80.95;;;4.70;99.90;;;;;;5024024;28;20095;-83
2023/12/09 09:12:08;;;;;;;121.88;45.97;;;4.70;99.90;;;;;;5017002;28;20029;-83
2023/12/09 09:14:36;;;;;;;167.57;69.88;;;4.60;99.90;;;;;;5027381;28;20061;-83
2023/12/09 09:17:03;;;;;;;183.85;68.95;;;4.60;99.90;;;;;;5030397;28;20076;-83
2023/12/09 09:19:29;;;;;;;215.13;88.30;;;4.60;99.90;;;;;;5056789;28;20504;-83
2023/12/09 09:21:55;;;;;;;120.43;49.00;;;4.50;99.90;;;;;;5012371;28;20072;-83
2023/12/09 09:24:20;;;;;;;131.95;50.85;;;4.50;99.90;;;;;;5031772;28;20024;-83
2023/12/09 09:26:47;;;;;;;144.95;43.42;;;4.60;99.90;;;;;;5017047;28;20028;-83
2023/12/09 09:29:12;;;;;;;112.35;40.22;;;4.60;99.90;;;;;;5016760;28;20040;-83
2023/12/09 09:31:38;;;;;;;156.48;48.97;;;4.70;99.90;;;;;;5018371;28;20116;-83
2023/12/09 09:34:04;;;;;;;155.90;53.15;;;4.70;99.90;;;;;;5040938;28;20026;-84
2023/12/09 09:36:30;;;;;;;104.40;39.38;;;4.70;99.90;;;;;;5035831;28;20029;-83
2023/12/09 09:38:56;;;;;;;106.88;35.08;;;4.80;99.90;;;;;;5033116;28;20079;-83
2023/12/09 09:41:27;;;;;;;94.80;33.72;;;4.70;99.90;;;;;;5031020;28;20037;-83
2023/12/09 09:44:01;;;;;;;111.68;45.63;;;4.70;99.90;;;;;;5016894;28;20511;-84
2023/12/09 09:46:28;;;;;;;124.47;58.80;;;4.70;99.90;;;;;;5029528;28;20433;-83
2023/12/09 09:48:55;;;;;;;143.70;57.60;;;4.80;99.90;;;;;;5037723;28;20024;-84
2023/12/09 09:51:28;;;;;;;152.00;51.33;;;4.90;99.90;;;;;;5017239;28;20030;-84
2023/12/09 09:54:26;;;;;;;82.72;33.17;;;4.90;99.90;;;;;;5023118;28;20017;-84
2023/12/09 09:56:52;;;;;;;93.90;31.33;;;4.80;99.90;;;;;;5035996;28;20192;-83
2023/12/09 09:59:18;;;;;;;120.53;51.60;;;4.70;99.90;;;;;;5012712;28;20029;-83
2023/12/09 10:01:44;;;;;;;91.72;34.65;;;4.70;99.90;;;;;;5032295;28;20120;-83
2023/12/09 10:04:11;;;;;;;112.32;40.95;;;4.80;99.90;;;;;;5015544;28;20037;-84
2023/12/09 10:06:36;;;;;;;94.65;36.50;;;4.70;99.90;;;;;;5035762;28;20033;-83
2023/12/09 10:09:04;;;;;;;84.15;34.33;;;4.80;99.90;;;;;;5038898;28;20671;-84
2023/12/09 10:11:29;;;;;;;85.28;35.03;;;4.80;99.90;;;;;;5021951;28;20048;-83
2023/12/09 10:13:55;;;;;;;93.85;38.28;;;4.80;99.90;;;;;;5032703;28;20037;-83
2023/12/09 10:16:21;;;;;;;104.28;43.85;;;4.90;99.90;;;;;;5033697;28;20064;-83
2023/12/09 10:18:47;;;;;;;106.60;42.20;;;4.90;99.90;;;;;;5021318;28;20468;-83
2023/12/09 10:21:14;;;;;;;86.53;35.13;;;4.80;99.90;;;;;;5036461;28;20091;-83
2023/12/09 10:23:40;;;;;;;94.75;39.33;;;4.70;99.90;;;;;;5035717;28;20484;-84
2023/12/09 10:26:07;;;;;;;101.60;40.95;;;4.80;99.90;;;;;;5033217;28;20108;-83
2023/12/09 10:28:33;;;;;;;80.18;35.30;;;4.90;99.90;;;;;;5020624;28;20047;-84
2023/12/09 10:31:01;;;;;;;104.85;38.22;;;5.00;99.90;;;;;;5035761;28;20040;-84
2023/12/09 10:33:32;;;;;;;82.07;36.03;;;5.00;99.90;;;;;;5032568;28;20072;-84
2023/12/09 10:35:59;;;;;;;89.43;36.13;;;5.00;99.90;;;;;;5001092;28;20037;-83
2023/12/09 10:38:25;;;;;;;91.35;35.33;;;4.90;99.90;;;;;;5009551;28;20276;-84
2023/12/09 10:40:53;;;;;;;94.68;39.95;;;4.80;99.90;;;;;;5014800;28;20164;-83
2023/12/09 10:43:20;;;;;;;88.95;38.78;;;4.80;99.90;;;;;;5032511;28;20083;-84
2023/12/09 10:45:46;;;;;;;86.47;40.85;;;4.90;99.90;;;;;;5020780;28;20095;-84
2023/12/09 10:48:12;;;;;;;91.35;40.55;;;5.00;99.90;;;;;;5016734;28;20033;-84
2023/12/09 10:50:37;;;;;;;97.75;41.78;;;5.00;99.90;;;;;;5015206;28;20060;-84
2023/12/09 10:53:04;;;;;;;87.05;36.47;;;5.10;99.90;;;;;;5064756;28;20645;-83
2023/12/09 10:55:30;;;;;;;87.43;39.17;;;5.30;99.90;;;;;;5032378;28;20033;-83
2023/12/09 10:57:58;;;;;;;89.85;37.60;;;5.40;99.90;;;;;;5055345;28;20061;-83
2023/12/09 11:00:24;;;;;;;59.67;28.70;;;5.40;99.90;;;;;;5017300;28;20025;-83
2023/12/09 11:02:52;;;;;;;105.75;53.00;;;5.40;99.90;;;;;;5038102;28;20021;-83
2023/12/09 11:05:19;;;;;;;129.30;71.72;;;5.40;99.90;;;;;;5032681;28;20112;-84
2023/12/09 11:07:47;;;;;;;91.05;46.45;;;5.50;99.90;;;;;;5026200;28;20392;-84
2023/12/09 11:10:13;;;;;;;74.53;33.53;;;5.50;99.90;;;;;;5014881;28;20132;-84
2023/12/09 11:12:41;;;;;;;95.53;43.85;;;5.60;99.90;;;;;;5030489;28;20782;-84
2023/12/09 11:15:13;;;;;;;91.78;43.38;;;5.60;99.90;;;;;;5035763;28;20040;-83
2023/12/09 11:17:40;;;;;;;118.90;59.92;;;5.60;99.90;;;;;;5015408;28;20131;-84
2023/12/09 11:20:14;;;;;;;285.27;45.67;;;5.50;99.90;;;;;;5015643;28;20030;-84
2023/12/09 11:22:47;;;;;;;86.93;49.97;;;5.50;99.90;;;;;;5031523;28;20037;-83
2023/12/09 11:25:18;;;;;;;353.15;46.58;;;5.50;99.90;;;;;;5034179;28;20118;-84
2023/12/09 11:27:44;;;;;;;477.05;51.83;;;5.40;99.90;;;;;;5037082;28;20110;-83
2023/12/09 11:30:37;;;;;;;158.00;41.72;;;5.30;99.90;;;;;;5017406;28;20064;-84
2023/12/09 11:33:04;;;;;;;603.17;63.45;;;5.30;99.90;;;;;;5037101;28;20025;-83
2023/12/09 11:35:31;;;;;;;192.35;42.55;;;5.20;99.90;;;;;;5016035;28;20030;-84
2023/12/09 11:37:58;;;;;;;340.17;47.95;;;5.20;99.90;;;;;;5022672;28;20022;-83
2023/12/09 11:40:27;;;;;;;468.15;49.35;;;5.20;99.90;;;;;;5019570;28;20048;-84
2023/12/09 11:42:54;;;;;;;528.33;56.13;;;5.20;99.90;;;;;;5041984;28;20042;-83
2023/12/09 11:45:21;;;;;;;445.40;52.38;;;5.20;99.90;;;;;;5021526;28;20037;-84
2023/12/09 11:47:47;;;;;;;211.70;38.92;;;5.10;99.90;;;;;;5020345;28;20095;-84
2023/12/09 11:50:17;;;;;;;86.85;30.77;;;5.20;99.90;;;;;;5039163;28;20037;-83
2023/12/09 11:52:44;;;;;;;213.93;39.15;;;5.10;99.90;;;;;;5022080;28;20040;-84
2023/12/09 11:55:10;;;;;;;485.77;54.97;;;5.20;99.90;;;;;;5033576;28;20388;-84
2023/12/09 11:57:38;;;;;;;380.55;51.55;;;5.10;99.90;;;;;;5040499;28;20032;-84
2023/12/09 12:00:06;;;;;;;150.43;36.30;;;5.10;99.90;;;;;;5019117;28;20113;-83
2023/12/09 12:02:36;;;;;;;164.82;36.75;;;5.10;99.90;;;;;;5041716;28;20489;-84
2023/12/09 12:05:02;;;;;;;258.20;38.88;;;5.20;99.90;;;;;;5020941;28;20048;-84
2023/12/09 12:07:27;;;;;;;130.65;32.95;;;5.30;99.90;;;;;;5039766;28;20020;-84
2023/12/09 12:09:53;;;;;;;313.27;41.03;;;5.30;99.90;;;;;;5038810;28;20048;-84
2023/12/09 12:12:19;;;;;;;303.02;39.28;;;5.50;99.90;;;;;;5037204;28;20087;-84
2023/12/09 12:14:46;;;;;;;151.55;30.25;;;5.50;99.90;;;;;;5041675;28;20032;-84
2023/12/09 12:17:12;;;;;;;128.02;30.65;;;5.50;99.90;;;;;;5022340;28;20423;-84
2023/12/09 12:19:39;;;;;;;142.95;31.00;;;5.50;99.90;;;;;;5035072;28;20041;-84
2023/12/09 12:22:05;;;;;;;58.22;24.67;;;5.40;99.90;;;;;;5023620;28;20032;-84
2023/12/09 12:24:43;;;;;;;59.13;24.92;;;5.30;99.90;;;;;;5054102;28;20045;-83
2023/12/09 12:27:09;;;;;;;46.40;22.58;;;5.30;99.90;;;;;;5020558;28;20726;-84